createdAt,value
2023-02-19T00:02:22.709Z,-4.34
2023-02-19T00:07:24.688Z,-4.38
2023-02-19T00:12:27.657Z,-4.47
2023-02-19T00:17:31.416Z,-4.39
2023-02-19T00:22:33.484Z,-4.42
2023-02-19T00:27:35.558Z,-4.42
2023-02-19T00:32:37.632Z,-4.49
2023-02-19T00:37:39.671Z,-4.39
2023-02-19T00:42:41.813Z,-4.53
2023-02-19T00:47:44.066Z,-4.53
2023-02-19T00:52:46.182Z,-4.63
2023-02-19T00:57:48.410Z,-4.69
2023-02-19T01:02:50.598Z,-4.83
2023-02-19T01:07:52.664Z,-4.86
2023-02-19T01:12:54.686Z,-4.95
2023-02-19T01:17:56.805Z,-5.05
2023-02-19T01:22:58.940Z,-5.03
2023-02-19T01:28:00.969Z,-5.04
2023-02-19T01:33:05.089Z,-5.06
2023-02-19T01:38:10.329Z,-5.04
2023-02-19T01:43:16.689Z,-4.99
2023-02-19T01:48:25.420Z,-5.13
2023-02-19T01:53:31.378Z,-5.08
2023-02-19T01:58:35.591Z,-5.03
2023-02-19T02:03:40.704Z,-5.18
2023-02-19T02:09:01.711Z,-5.05
2023-02-19T02:14:04.806Z,-5.11
2023-02-19T02:19:44.417Z,-5.05
2023-02-19T02:24:55.470Z,-5.16
2023-02-19T02:30:22.005Z,-5.24
2023-02-19T02:35:30.172Z,-5.22
2023-02-19T02:40:32.504Z,-5.25
2023-02-19T02:45:36.398Z,-5.19
2023-02-19T02:50:52.408Z,-5.23
2023-02-19T02:55:56.011Z,-5.23
2023-02-19T03:01:23.311Z,-5.35
2023-02-19T03:06:29.397Z,-5.31
2023-02-19T03:11:51.377Z,-5.30
2023-02-19T03:17:19.379Z,-5.30
2023-02-19T03:22:27.877Z,-5.30
2023-02-19T03:27:32.601Z,-5.32
2023-02-19T03:32:45.443Z,-5.26
2023-02-19T03:37:55.494Z,-5.42
2023-02-19T03:43:08.095Z,-5.36
2023-02-19T03:48:35.121Z,-5.29
2023-02-19T03:54:00.607Z,-5.37
2023-02-19T03:59:34.038Z,-5.43
2023-02-19T04:04:39.760Z,-5.49
2023-02-19T04:09:49.092Z,-5.42
2023-02-19T04:15:06.687Z,-5.43
2023-02-19T04:20:12.128Z,-5.37
2023-02-19T04:25:14.288Z,-5.28
2023-02-19T04:30:16.662Z,-5.48
2023-02-19T04:35:18.681Z,-5.40
2023-02-19T04:40:20.765Z,-5.43
2023-02-19T04:45:22.848Z,-5.45
2023-02-19T04:50:25.270Z,-5.38
2023-02-19T04:55:27.368Z,-5.30
2023-02-19T05:00:29.389Z,-5.31
2023-02-19T05:05:31.633Z,-5.25
2023-02-19T05:10:33.986Z,-5.19
2023-02-19T05:15:36.233Z,-5.17
2023-02-19T05:20:38.377Z,-5.34
2023-02-19T05:25:40.387Z,-5.30
2023-02-19T05:30:42.466Z,-5.29
2023-02-19T05:35:46.993Z,-5.20
2023-02-19T05:40:49.417Z,-5.16
2023-02-19T05:45:51.421Z,-5.05
2023-02-19T05:50:53.431Z,-5.11
2023-02-19T05:55:55.526Z,-5.11
2023-02-19T06:00:57.673Z,-5.07
2023-02-19T06:05:59.689Z,-4.96
2023-02-19T06:11:01.822Z,-4.97
2023-02-19T06:16:04.962Z,-5.07
2023-02-19T06:21:10.902Z,-5.09
2023-02-19T06:26:14.349Z,-4.95
2023-02-19T06:31:17.517Z,-4.91
2023-02-19T06:36:21.065Z,-4.68
2023-02-19T06:41:23.145Z,-4.58
2023-02-19T06:46:25.432Z,-4.53
2023-02-19T06:51:29.874Z,-4.52
2023-02-19T06:56:38.455Z,-4.26
2023-02-19T07:01:41.466Z,-4.26
2023-02-19T07:06:43.757Z,-4.18
2023-02-19T07:11:45.790Z,-4.13
2023-02-19T07:16:48.259Z,-4.05
2023-02-19T07:21:50.365Z,-3.89
2023-02-19T07:26:52.397Z,-4.02
2023-02-19T07:31:54.467Z,-4.01
2023-02-19T07:36:56.516Z,-3.71
2023-02-19T07:41:58.573Z,-3.88
2023-02-19T07:47:03.719Z,-3.86
2023-02-19T07:52:06.154Z,-3.92
2023-02-19T07:57:08.910Z,-4.13
2023-02-19T08:02:38.069Z,-4.07
2023-02-19T08:07:40.652Z,-4.16
2023-02-19T08:13:01.255Z,-4.20
2023-02-19T08:18:03.588Z,-4.20
2023-02-19T08:23:06.309Z,-3.96
2023-02-19T08:28:10.175Z,-3.83
2023-02-19T08:33:15.043Z,-3.77
2023-02-19T08:38:17.157Z,-3.72
2023-02-19T08:43:19.504Z,-3.56
2023-02-19T08:48:22.388Z,-3.48
2023-02-19T08:53:25.486Z,-3.30
2023-02-19T08:58:27.595Z,-3.35
2023-02-19T09:03:29.705Z,-3.30
2023-02-19T09:08:31.761Z,-3.58
2023-02-19T09:13:33.766Z,-3.63
2023-02-19T09:18:36.148Z,-3.57
2023-02-19T09:23:38.294Z,-3.42
2023-02-19T09:28:42.025Z,-3.40
2023-02-19T09:33:48.222Z,-3.63
2023-02-19T09:38:50.255Z,-3.67
2023-02-19T09:43:52.397Z,-3.59
2023-02-19T09:49:05.948Z,-3.41
2023-02-19T09:54:18.825Z,-3.48
2023-02-19T09:59:27.237Z,-3.41
2023-02-19T10:04:29.421Z,-3.54
2023-02-19T10:09:31.635Z,-3.52
2023-02-19T10:14:42.286Z,-3.37
2023-02-19T10:19:44.455Z,-3.42
2023-02-19T10:24:52.182Z,-3.42
2023-02-19T10:29:54.785Z,-3.39
2023-02-19T10:35:10.888Z,-3.22
2023-02-19T10:40:25.361Z,-3.37
2023-02-19T10:45:36.270Z,-3.26
2023-02-19T10:50:39.422Z,-3.38
2023-02-19T10:55:41.512Z,-3.25
2023-02-19T11:00:43.544Z,-3.16
2023-02-19T11:06:01.687Z,-2.80
2023-02-19T11:11:03.774Z,-2.62
2023-02-19T11:16:06.065Z,-2.53
2023-02-19T11:21:22.158Z,-2.38
2023-02-19T11:26:27.111Z,-2.25
2023-02-19T11:31:32.408Z,-2.38
2023-02-19T11:36:36.477Z,-2.61
2023-02-19T11:42:05.996Z,-2.52
2023-02-19T11:47:29.670Z,-2.49
2023-02-19T11:52:36.322Z,-2.62
2023-02-19T11:57:45.938Z,-2.64
2023-02-19T12:03:40.132Z,-2.85
2023-02-19T12:09:12.847Z,-3.07
2023-02-19T12:14:49.187Z,-3.01
2023-02-19T12:20:31.795Z,-2.98
2023-02-19T12:25:57.376Z,-2.98
2023-02-19T12:31:15.747Z,-3.16
2023-02-19T12:36:36.418Z,-3.25
2023-02-19T12:41:47.070Z,-3.22
2023-02-19T12:46:54.199Z,-3.15
2023-02-19T12:52:02.206Z,-3.16
2023-02-19T12:57:13.189Z,-3.11
2023-02-19T13:02:20.827Z,-3.22
2023-02-19T13:07:38.175Z,-3.19
2023-02-19T13:12:44.288Z,-3.22
2023-02-19T13:18:01.353Z,-3.05
2023-02-19T13:23:51.922Z,-3.21
2023-02-19T13:29:15.707Z,-3.36
2023-02-19T13:34:48.002Z,-3.45
2023-02-19T13:39:53.053Z,-3.58
2023-02-19T13:44:58.022Z,-3.58
2023-02-19T13:50:08.358Z,-3.68
2023-02-19T13:55:49.839Z,-3.63
2023-02-19T14:00:53.624Z,-3.66
2023-02-19T14:06:01.396Z,-3.59
2023-02-19T14:11:05.105Z,-3.67
2023-02-19T14:16:37.887Z,-3.48
2023-02-19T14:21:43.519Z,-3.68
2023-02-19T14:26:45.784Z,-3.80
2023-02-19T14:31:48.029Z,-3.79
2023-02-19T14:37:00.974Z,-3.74
2023-02-19T14:42:09.092Z,-3.80
2023-02-19T14:47:16.273Z,-3.76
2023-02-19T14:52:45.833Z,-3.68
2023-02-19T14:57:51.445Z,-3.76
2023-02-19T15:02:56.811Z,-3.95
2023-02-19T15:08:02.300Z,-3.81
2023-02-19T15:13:12.171Z,-3.88
2023-02-19T15:18:23.794Z,-3.97
2023-02-19T15:23:27.615Z,-4.05
2023-02-19T15:28:33.339Z,-4.03
2023-02-19T15:33:35.562Z,-4.07
2023-02-19T15:38:37.825Z,-4.13
2023-02-19T15:43:49.952Z,-4.02
2023-02-19T15:49:06.881Z,-4.17
2023-02-19T15:54:22.672Z,-4.06
2023-02-19T15:59:45.384Z,-4.04
2023-02-19T16:04:48.392Z,-4.08
2023-02-19T16:10:16.488Z,-3.96
2023-02-19T16:15:20.153Z,-4.13
2023-02-19T16:20:48.581Z,-4.12
2023-02-19T16:26:00.267Z,-4.17
2023-02-19T16:31:05.204Z,-4.10
2023-02-19T16:36:26.453Z,-4.04
2023-02-19T16:41:28.573Z,-4.01
2023-02-19T16:46:30.598Z,-3.92
2023-02-19T16:51:32.662Z,-4.01
2023-02-19T16:56:34.668Z,-3.99
2023-02-19T17:01:37.929Z,-4.04
2023-02-19T17:06:40.096Z,-3.98
2023-02-19T17:11:42.122Z,-3.84
2023-02-19T17:16:44.253Z,-3.90
2023-02-19T17:21:46.870Z,-3.79
2023-02-19T17:26:48.967Z,-4.03
2023-02-19T17:31:51.966Z,-4.02
2023-02-19T17:36:54.085Z,-4.04
2023-02-19T17:41:56.121Z,-4.00
2023-02-19T17:46:58.244Z,-3.95
2023-02-19T17:52:00.305Z,-3.99
2023-02-19T17:57:02.346Z,-4.04
2023-02-19T18:02:04.422Z,-3.99
2023-02-19T18:07:06.464Z,-3.99
2023-02-19T18:12:09.349Z,-3.92
2023-02-19T18:17:11.370Z,-3.88
2023-02-19T18:22:13.460Z,-3.76
2023-02-19T18:27:16.653Z,-3.80
2023-02-19T18:32:20.253Z,-3.76
2023-02-19T18:37:24.441Z,-3.85
2023-02-19T18:42:27.195Z,-3.78
2023-02-19T18:47:29.259Z,-3.86
2023-02-19T18:52:31.339Z,-3.92
2023-02-19T18:57:33.363Z,-3.94
2023-02-19T19:02:47.349Z,-3.92
2023-02-19T19:07:55.555Z,-3.88
2023-02-19T19:12:58.700Z,-3.85
2023-02-19T19:18:00.868Z,-3.82
2023-02-19T19:23:04.177Z,-3.94
2023-02-19T19:28:06.202Z,-3.69
2023-02-19T19:33:08.229Z,-3.71
2023-02-19T19:38:10.281Z,-3.64
2023-02-19T19:43:13.090Z,-3.58
2023-02-19T19:48:15.133Z,-3.65
2023-02-19T19:53:17.203Z,-3.73
2023-02-19T19:58:24.590Z,-3.66
2023-02-19T20:03:27.313Z,-3.65
2023-02-19T20:08:29.537Z,-3.73
2023-02-19T20:13:34.091Z,-3.73
2023-02-19T20:18:36.336Z,-3.68
2023-02-19T20:23:39.903Z,-3.62
2023-02-19T20:28:45.261Z,-3.64
2023-02-19T20:33:49.195Z,-3.64
2023-02-19T20:38:51.341Z,-3.64
2023-02-19T20:43:53.471Z,-3.67
2023-02-19T20:48:56.566Z,-3.69
2023-02-19T20:53:58.645Z,-3.68
2023-02-19T20:59:01.696Z,-3.78
2023-02-19T21:04:03.726Z,-3.80
2023-02-19T21:09:06.637Z,-3.85
2023-02-19T21:14:09.646Z,-3.71
2023-02-19T21:19:11.949Z,-3.82
2023-02-19T21:24:15.475Z,-3.80
2023-02-19T21:29:20.959Z,-3.80
2023-02-19T21:34:26.005Z,-3.79
2023-02-19T21:39:28.327Z,-3.79
2023-02-19T21:44:30.373Z,-3.82
2023-02-19T21:49:32.758Z,-3.80
2023-02-19T21:54:34.867Z,-3.83
2023-02-19T21:59:36.930Z,-3.74
2023-02-19T22:04:39.004Z,-3.61
2023-02-19T22:09:41.087Z,-3.67
2023-02-19T22:14:43.238Z,-3.54
2023-02-19T22:19:45.268Z,-3.50
2023-02-19T22:24:47.285Z,-3.51
2023-02-19T22:29:49.498Z,-3.45
2023-02-19T22:34:51.606Z,-3.41
2023-02-19T22:39:53.806Z,-3.35
2023-02-19T22:44:55.966Z,-3.31
2023-02-19T22:49:58.075Z,-3.29
2023-02-19T22:55:00.747Z,-3.33
2023-02-19T23:00:05.609Z,-3.27
2023-02-19T23:05:07.895Z,-3.31
2023-02-19T23:10:11.444Z,-3.30
2023-02-19T23:15:15.435Z,-3.33
2023-02-19T23:20:17.581Z,-3.41
2023-02-19T23:25:19.657Z,-3.46
2023-02-19T23:30:21.674Z,-3.47
2023-02-19T23:35:23.825Z,-3.49
2023-02-19T23:40:25.869Z,-3.52
2023-02-19T23:45:27.890Z,-3.55
2023-02-19T23:50:30.018Z,-3.59
2023-02-19T23:55:32.132Z,-3.74
